Time;durP1;ratioP1;P1;durP2;ratioP2;P2;SDS_P1;SDS_P2;PMS_P1;PMS_P2;Temp;Humidity;BMP_temperature;BMP_pressure;BME280_temperature;BME280_humidity;BME280_pressure;Samples;Min_cycle;Max_cycle;Signal;HPM_P1;HPM_P2
2021/12/20 00:02:15;;;;;;;18.77;7.20;;;;;;;6.19;100.00;102720.66;6217352;23;20008;-66
2021/12/20 00:04:40;;;;;;;21.92;7.18;;;;;;;6.19;100.00;102710.25;6217511;23;20012;-65
2021/12/20 00:07:06;;;;;;;14.93;6.60;;;;;;;6.20;100.00;102709.44;6219082;23;20011;-65
2021/12/20 00:09:31;;;;;;;16.25;6.57;;;;;;;6.17;100.00;102704.13;6219644;23;20063;-66
2021/12/20 00:11:56;;;;;;;17.80;6.30;;;;;;;6.16;100.00;102697.16;6219696;23;20044;-64
2021/12/20 00:14:21;;;;;;;16.95;6.70;;;;;;;6.16;100.00;102716.22;6219409;23;20001;-65
2021/12/20 00:16:47;;;;;;;21.88;6.88;;;;;;;6.13;100.00;102713.50;6219375;23;20005;-65
2021/12/20 00:19:12;;;;;;;20.25;6.70;;;;;;;6.17;100.00;102711.91;6219362;23;20268;-65
2021/12/20 00:21:37;;;;;;;17.80;6.88;;;;;;;6.20;100.00;102718.13;6219303;23;20421;-65
2021/12/20 00:24:04;;;;;;;15.20;6.78;;;;;;;6.16;100.00;102717.94;6219302;23;20001;-65
2021/12/20 00:26:29;;;;;;;12.57;5.10;;;;;;;6.17;100.00;102718.00;6219513;23;20005;-65
2021/12/20 00:28:54;;;;;;;19.05;5.55;;;;;;;6.13;100.00;102715.22;6219507;23;20008;-66
2021/12/20 00:31:20;;;;;;;15.50;5.78;;;;;;;6.13;100.00;102723.91;6219197;23;20004;-65
2021/12/20 00:33:45;;;;;;;13.18;5.80;;;;;;;6.15;100.00;102718.78;6219280;23;20338;-64
2021/12/20 00:36:10;;;;;;;13.02;5.03;;;;;;;6.09;100.00;102706.44;6219442;23;20028;-64
2021/12/20 00:41:21;;;;;;;13.40;5.05;;;;;;;6.14;100.00;102704.91;6219005;23;20421;-65
2021/12/20 00:43:47;;;;;;;14.80;4.88;;;;;;;6.17;100.00;102696.31;6218873;23;20008;-64
2021/12/20 00:46:13;;;;;;;12.98;3.90;;;;;;;6.11;100.00;102693.50;6219102;23;20011;-65
2021/12/20 00:48:39;;;;;;;15.63;4.13;;;;;;;6.12;100.00;102695.28;6218552;23;20413;-65
2021/12/20 00:51:04;;;;;;;16.25;3.88;;;;;;;6.10;100.00;102702.13;6219251;23;20005;-65
2021/12/20 00:53:30;;;;;;;13.65;4.20;;;;;;;6.08;100.00;102701.19;6219035;23;20382;-64
2021/12/20 00:55:55;;;;;;;11.30;3.75;;;;;;;6.05;100.00;102691.59;6219141;23;20066;-64
2021/12/20 00:58:20;;;;;;;15.98;4.03;;;;;;;6.08;100.00;102698.59;6219145;23;20358;-65
2021/12/20 01:00:51;;;;;;;11.80;3.28;;;;;;;6.08;100.00;102704.66;6218992;23;20097;-65
2021/12/20 01:03:18;;;;;;;10.40;3.58;;;;;;;6.10;100.00;102705.59;6219063;23;20001;-65
2021/12/20 01:05:43;;;;;;;10.82;3.63;;;;;;;6.08;100.00;102686.47;6218555;23;20008;-65
2021/12/20 01:08:09;;;;;;;10.95;3.28;;;;;;;6.13;100.00;102705.72;6219101;23;20019;-65
2021/12/20 01:10:39;;;;;;;11.88;3.03;;;;;;;6.12;100.00;102708.25;6218872;23;20004;-65
2021/12/20 01:13:05;;;;;;;12.07;3.55;;;;;;;6.08;100.00;102703.78;6219106;23;20009;-65
2021/12/20 01:15:45;;;;;;;10.65;3.20;;;;;;;6.07;100.00;102710.69;6219151;23;20074;-64
2021/12/20 01:18:10;;;;;;;13.25;3.17;;;;;;;6.01;100.00;102705.31;6218118;23;20433;-65
2021/12/20 01:20:36;;;;;;;14.80;3.35;;;;;;;6.04;100.00;102712.31;6218971;23;20005;-64
2021/12/20 01:23:03;;;;;;;14.00;3.10;;;;;;;6.01;100.00;102709.63;6218711;23;20015;-64
2021/12/20 01:25:29;;;;;;;12.57;2.83;;;;;;;6.01;100.00;102712.22;6218581;23;20004;-65
2021/12/20 01:27:54;;;;;;;18.40;3.45;;;;;;;5.94;100.00;102709.38;6219107;23;20039;-65
2021/12/20 01:30:22;;;;;;;15.88;2.80;;;;;;;5.97;100.00;102707.72;6218676;23;20054;-65
2021/12/20 01:32:48;;;;;;;15.93;3.20;;;;;;;5.94;100.00;102711.09;6218762;23;20032;-65
2021/12/20 01:35:14;;;;;;;19.48;3.03;;;;;;;5.93;100.00;102699.81;6218514;23;20070;-64
2021/12/20 01:37:40;;;;;;;14.52;3.10;;;;;;;5.91;100.00;102696.28;6218745;23;20083;-64
2021/12/20 01:40:09;;;;;;;17.33;2.63;;;;;;;5.94;100.00;102706.78;6218424;23;20016;-66
2021/12/20 01:42:36;;;;;;;23.75;3.13;;;;;;;5.90;99.94;102693.63;6218611;23;20322;-65
2021/12/20 01:45:05;;;;;;;15.70;2.90;;;;;;;5.90;99.26;102696.22;6218775;23;20035;-65
2021/12/20 01:47:34;;;;;;;14.35;2.78;;;;;;;5.91;100.00;102687.59;6218478;23;20028;-65
2021/12/20 01:50:08;;;;;;;17.75;2.92;;;;;;;5.93;100.00;102692.03;6218562;23;20005;-64
2021/12/20 01:52:42;;;;;;;16.80;2.88;;;;;;;5.88;99.97;102688.41;6218369;23;20004;-65
2021/12/20 01:55:11;;;;;;;15.65;3.40;;;;;;;5.90;100.00;102701.41;6218516;23;20408;-65
2021/12/20 01:57:37;;;;;;;14.75;3.17;;;;;;;5.91;99.45;102704.06;6218426;23;20339;-64
2021/12/20 02:00:29;;;;;;;20.85;2.85;;;;;;;5.90;99.55;102699.72;6218351;23;20043;-65
2021/12/20 02:03:01;;;;;;;17.95;2.97;;;;;;;5.91;99.48;102693.69;6218464;23;20088;-65
2021/12/20 02:05:48;;;;;;;14.73;2.97;;;;;;;5.86;99.55;102681.34;6218449;23;20004;-65
2021/12/20 02:08:17;;;;;;;17.77;3.05;;;;;;;5.86;100.00;102678.75;6218410;23;20019;-64
2021/12/20 02:10:44;;;;;;;16.50;2.88;;;;;;;5.82;99.16;102680.34;6218398;23;20008;-64
2021/12/20 02:13:13;;;;;;;20.42;2.78;;;;;;;5.88;98.79;102693.59;6218285;23;20013;-65
2021/12/20 02:15:38;;;;;;;20.83;3.47;;;;;;;5.84;96.50;102689.09;6218180;23;20367;-65
2021/12/20 02:18:03;;;;;;;22.17;3.60;;;;;;;5.85;98.48;102682.19;6217928;23;20009;-65
2021/12/20 02:20:33;;;;;;;17.50;2.78;;;;;;;5.88;97.93;102692.69;6218374;23;20005;-64
2021/12/20 02:23:00;;;;;;;16.77;3.00;;;;;;;5.83;99.19;102682.13;6217832;23;20393;-65
2021/12/20 02:25:28;;;;;;;13.65;2.72;;;;;;;5.86;97.54;102690.03;6218044;23;20019;-65
2021/12/20 02:27:54;;;;;;;17.08;2.83;;;;;;;5.82;98.11;102685.56;6218186;23;20004;-65
2021/12/20 02:38:26;;;;;;;16.52;3.22;;;;;;;5.81;97.90;102681.19;6217606;23;20357;-65
2021/12/20 02:41:08;;;;;;;17.05;2.58;;;;;;;5.84;97.90;102683.00;6217742;23;20004;-65
2021/12/20 02:43:38;;;;;;;19.40;3.28;;;;;;;5.81;98.82;102675.09;6218097;23;20091;-65
2021/12/20 02:46:11;;;;;;;23.67;3.40;;;;;;;5.80;97.16;102684.59;6218032;23;20004;-65
2021/12/20 02:48:36;;;;;;;18.40;2.75;;;;;;;5.79;98.22;102674.16;6217573;23;20469;-65
2021/12/20 02:51:01;;;;;;;20.52;3.05;;;;;;;5.74;96.77;102679.19;6218169;23;20094;-65
2021/12/20 02:53:27;;;;;;;20.10;3.33;;;;;;;5.78;96.94;102691.47;6217960;23;20019;-65
2021/12/20 02:55:52;;;;;;;20.65;3.55;;;;;;;5.74;97.62;102675.69;6217863;23;20036;-65
2021/12/20 02:58:17;;;;;;;17.23;2.80;;;;;;;5.71;96.33;102679.09;6217936;23;20016;-64
2021/12/20 03:00:43;;;;;;;21.13;3.00;;;;;;;5.77;94.38;102681.00;6217692;23;20008;-65
2021/12/20 03:03:09;;;;;;;15.23;3.15;;;;;;;5.77;95.26;102676.69;6217892;23;20306;-64
2021/12/20 03:05:36;;;;;;;19.73;3.10;;;;;;;5.76;93.48;102677.53;6217308;23;20390;-65
2021/12/20 03:08:03;;;;;;;20.25;3.50;;;;;;;5.70;92.35;102677.31;6217836;23;20084;-64
2021/12/20 03:10:30;;;;;;;15.70;3.03;;;;;;;5.74;95.09;102676.59;6217744;23;20100;-64
2021/12/20 03:12:56;;;;;;;14.43;2.70;;;;;;;5.79;96.75;102677.63;6217692;23;20425;-64
2021/12/20 03:15:25;;;;;;;19.60;3.60;;;;;;;5.80;95.82;102689.81;6217975;23;20035;-64
2021/12/20 03:17:53;;;;;;;18.45;3.13;;;;;;;5.80;96.59;102683.72;6217692;23;20032;-65
2021/12/20 03:20:20;;;;;;;18.75;3.15;;;;;;;5.79;96.22;102677.63;6217353;23;20005;-65
2021/12/20 03:22:46;;;;;;;22.30;3.33;;;;;;;5.81;95.26;102670.78;6217683;23;20430;-64
2021/12/20 03:25:11;;;;;;;21.02;3.42;;;;;;;5.77;93.27;102668.91;6217019;23;20046;-65
2021/12/20 03:27:36;;;;;;;21.67;3.00;;;;;;;5.76;95.27;102667.13;6217399;23;20015;-64
2021/12/20 03:30:04;;;;;;;18.83;3.25;;;;;;;5.77;94.15;102665.41;6217642;23;20007;-64
2021/12/20 03:32:29;;;;;;;17.75;3.30;;;;;;;5.79;95.02;102675.03;6217189;23;20432;-65
2021/12/20 03:34:54;;;;;;;19.20;3.22;;;;;;;5.78;94.84;102680.19;6217333;23;20000;-64
2021/12/20 03:37:20;;;;;;;17.63;2.85;;;;;;;5.75;94.63;102675.75;6217360;23;20110;-64
2021/12/20 03:39:45;;;;;;;20.70;2.97;;;;;;;5.64;95.88;102660.63;6217370;23;20004;-65
2021/12/20 03:42:10;;;;;;;17.48;3.03;;;;;;;5.75;94.58;102674.88;6217438;23;20421;-64
2021/12/20 03:44:43;;;;;;;23.45;3.53;;;;;;;5.75;95.23;102685.25;6217743;23;20024;-64
2021/12/20 03:47:08;;;;;;;15.38;3.40;;;;;;;5.66;96.14;102670.25;6217462;23;20000;-65
2021/12/20 03:49:33;;;;;;;19.33;3.00;;;;;;;5.72;95.18;102677.34;6217382;23;20287;-65
2021/12/20 03:51:59;;;;;;;19.90;3.25;;;;;;;5.69;95.22;102683.34;6217139;23;20298;-64
2021/12/20 03:54:24;;;;;;;23.33;3.30;;;;;;;5.57;94.50;102672.50;6217683;23;20007;-65
2021/12/20 03:56:49;;;;;;;14.38;2.47;;;;;;;5.64;97.25;102669.31;6217481;23;20075;-64
2021/12/20 03:59:15;;;;;;;16.23;3.00;;;;;;;5.65;96.09;102685.78;6217671;23;20015;-64
2021/12/20 04:01:40;;;;;;;18.15;3.08;;;;;;;5.64;95.66;102681.41;6217410;23;20004;-64
2021/12/20 04:04:05;;;;;;;20.52;3.22;;;;;;;5.62;97.09;102677.88;6217140;23;20040;-64
2021/12/20 04:06:33;;;;;;;19.85;3.17;;;;;;;5.62;96.01;102683.94;6217574;23;20031;-64
2021/12/20 04:08:59;;;;;;;20.73;3.33;;;;;;;5.64;95.15;102677.09;6217601;23;20052;-65
2021/12/20 04:11:24;;;;;;;21.35;3.30;;;;;;;5.59;95.56;102682.13;6217348;23;20036;-65
2021/12/20 04:13:50;;;;;;;19.75;3.25;;;;;;;5.62;96.94;102678.75;6217318;23;20009;-64
2021/12/20 04:16:15;;;;;;;25.65;4.00;;;;;;;5.56;95.51;102666.41;6217220;23;20008;-64
2021/12/20 04:18:40;;;;;;;20.10;3.35;;;;;;;5.60;96.43;102664.81;6217113;23;20004;-64
2021/12/20 04:21:06;;;;;;;22.73;3.58;;;;;;;5.65;93.31;102685.78;6217802;23;20291;-65
2021/12/20 04:23:31;;;;;;;19.58;3.38;;;;;;;5.62;95.16;102681.34;6217038;23;20008;-64
2021/12/20 04:25:57;;;;;;;17.55;3.53;;;;;;;5.62;95.52;102686.53;6217743;23;20008;-65
2021/12/20 04:28:22;;;;;;;22.45;3.05;;;;;;;5.58;94.53;102676.88;6217472;23;20036;-65
2021/12/20 04:30:48;;;;;;;24.92;3.35;;;;;;;5.60;93.59;102685.59;6217267;23;20004;-64
2021/12/20 04:33:13;;;;;;;20.35;3.25;;;;;;;5.60;94.93;102681.28;6217151;23;20067;-65
2021/12/20 04:35:38;;;;;;;20.45;3.42;;;;;;;5.62;95.41;102689.13;6216915;23;20008;-64
2021/12/20 04:38:04;;;;;;;21.13;3.55;;;;;;;5.64;94.85;102682.28;6217470;23;20000;-64
2021/12/20 04:40:30;;;;;;;21.58;3.40;;;;;;;5.64;95.53;102671.00;6217104;23;20008;-65
2021/12/20 04:42:58;;;;;;;25.33;3.65;;;;;;;5.66;94.20;102666.75;6217336;23;20019;-64
2021/12/20 04:45:26;;;;;;;21.73;3.30;;;;;;;5.63;92.90;102672.72;6217269;23;20017;-65
2021/12/20 04:47:52;;;;;;;21.77;3.30;;;;;;;5.62;91.39;102670.97;6217066;23;20009;-64
2021/12/20 04:50:18;;;;;;;21.95;3.20;;;;;;;5.62;91.58;102683.94;6217268;23;20013;-64
2021/12/20 04:52:43;;;;;;;24.23;3.42;;;;;;;5.65;93.11;102683.19;6218466;23;20008;-65
2021/12/20 04:55:11;;;;;;;19.77;3.15;;;;;;;5.65;93.30;102676.28;6218002;23;20088;-65
2021/12/20 04:57:38;;;;;;;16.10;3.05;;;;;;;5.63;92.82;102682.22;6219129;23;20005;-64
2021/12/20 05:00:09;;;;;;;22.45;3.13;;;;;;;5.67;93.19;102674.63;6219017;23;20007;-65
2021/12/20 05:02:34;;;;;;;23.60;3.28;;;;;;;5.63;92.02;102672.72;6218781;23;20399;-64
2021/12/20 05:04:59;;;;;;;27.90;4.00;;;;;;;5.65;93.79;102672.78;6218854;23;20001;-64
2021/12/20 05:07:26;;;;;;;19.38;3.42;;;;;;;5.61;93.55;102674.38;6218555;23;20004;-64
2021/12/20 05:09:57;;;;;;;24.77;3.67;;;;;;;5.63;92.96;102670.13;6218980;23;20104;-64
2021/12/20 05:12:22;;;;;;;17.42;2.97;;;;;;;5.65;94.48;102673.66;6218884;23;20083;-64
2021/12/20 05:14:48;;;;;;;15.77;2.90;;;;;;;5.64;93.45;102673.63;6218772;23;20027;-64
2021/12/20 05:17:13;;;;;;;28.38;3.63;;;;;;;5.58;90.26;102677.75;6218739;23;20035;-64
2021/12/20 05:19:41;;;;;;;20.83;3.53;;;;;;;5.56;93.81;102679.41;6218675;23;20004;-64
2021/12/20 05:22:07;;;;;;;22.98;3.75;;;;;;;5.60;93.01;102683.88;6218483;23;20035;-64
2021/12/20 05:24:32;;;;;;;16.08;3.10;;;;;;;5.63;93.53;102688.31;6218712;23;20394;-65
2021/12/20 05:26:57;;;;;;;19.90;3.20;;;;;;;5.63;94.49;102688.31;6218723;23;20015;-64
2021/12/20 05:29:24;;;;;;;18.13;3.03;;;;;;;5.63;93.41;102693.50;6218284;23;20339;-64
2021/12/20 05:31:50;;;;;;;21.33;3.35;;;;;;;5.61;93.47;102682.19;6218635;23;20088;-64
2021/12/20 05:34:16;;;;;;;23.48;4.25;;;;;;;5.60;92.95;102680.41;6218686;23;20394;-64
2021/12/20 05:36:41;;;;;;;19.08;3.42;;;;;;;5.62;91.59;102685.66;6218414;23;20047;-64
2021/12/20 05:39:06;;;;;;;28.65;3.42;;;;;;;5.64;90.87;102694.38;6218068;23;20012;-64
2021/12/20 05:41:32;;;;;;;25.48;3.50;;;;;;;5.62;91.78;102698.63;6218603;23;20009;-64
2021/12/20 05:43:57;;;;;;;16.05;3.53;;;;;;;5.58;90.01;102682.94;6218307;23;20403;-64
2021/12/20 05:46:22;;;;;;;20.92;3.95;;;;;;;5.62;92.89;102683.06;6218420;23;20008;-64
2021/12/20 05:48:48;;;;;;;18.65;3.42;;;;;;;5.56;91.25;102679.41;6218198;23;20011;-65
2021/12/20 05:51:14;;;;;;;16.20;2.80;;;;;;;5.57;92.67;102691.56;6218468;23;20005;-65
2021/12/20 05:53:39;;;;;;;16.58;3.80;;;;;;;5.55;90.85;102681.94;6218209;23;20279;-64
2021/12/20 05:56:04;;;;;;;17.70;3.35;;;;;;;5.52;88.88;102680.16;6218441;23;20088;-65
2021/12/20 05:58:30;;;;;;;22.52;3.53;;;;;;;5.51;87.92;102680.09;6218518;23;20012;-64
2021/12/20 06:00:55;;;;;;;20.02;3.58;;;;;;;5.55;89.03;102695.81;6218134;23;20079;-65
2021/12/20 06:03:21;;;;;;;20.60;3.72;;;;;;;5.49;87.61;102682.63;6218410;23;20078;-64
2021/12/20 06:05:46;;;;;;;21.90;3.53;;;;;;;5.53;90.43;102683.63;6218449;23;20001;-64
2021/12/20 06:08:11;;;;;;;28.10;3.60;;;;;;;5.54;89.94;102691.44;6218291;23;20084;-64
2021/12/20 06:10:37;;;;;;;24.15;3.28;;;;;;;5.55;91.10;102689.72;6218223;23;20016;-65
2021/12/20 06:13:04;;;;;;;25.40;3.63;;;;;;;5.55;90.69;102689.72;6218587;23;20011;-65
2021/12/20 06:15:29;;;;;;;17.02;3.70;;;;;;;5.55;90.06;102685.41;6217997;23;20039;-66
2021/12/20 06:17:55;;;;;;;18.77;3.42;;;;;;;5.58;91.48;102700.22;6218347;23;20005;-66
2021/12/20 06:20:20;;;;;;;22.50;3.90;;;;;;;5.53;88.11;102700.09;6218399;23;20394;-64
2021/12/20 06:22:45;;;;;;;25.02;3.58;;;;;;;5.49;89.06;102695.59;6217673;23;20005;-65
2021/12/20 06:25:11;;;;;;;26.25;3.65;;;;;;;5.54;89.87;102701.81;6217651;23;20001;-65
2021/12/20 06:27:38;;;;;;;19.58;3.42;;;;;;;5.54;91.40;102695.78;6217597;23;20398;-65
2021/12/20 06:30:04;;;;;;;21.05;3.60;;;;;;;5.52;88.85;102702.63;6216168;23;20004;-66
2021/12/20 06:32:29;;;;;;;24.17;4.30;;;;;;;5.54;90.44;102698.38;6218012;23;20058;-66
2021/12/20 06:34:55;;;;;;;22.50;4.25;;;;;;;5.53;87.85;102707.00;6218008;23;20119;-65
2021/12/20 06:37:21;;;;;;;20.13;3.78;;;;;;;5.45;87.39;102700.63;6217868;23;20007;-66
2021/12/20 06:39:46;;;;;;;22.67;3.35;;;;;;;5.46;88.91;102703.28;6217838;23;20000;-65
2021/12/20 06:42:11;;;;;;;16.83;3.72;;;;;;;5.45;87.41;102706.69;6217631;23;20004;-66
2021/12/20 06:44:37;;;;;;;15.57;3.00;;;;;;;5.44;84.96;102698.84;6218053;23;20048;-65
2021/12/20 06:47:02;;;;;;;21.05;3.63;;;;;;;5.44;86.35;102707.53;6217579;23;20005;-66
2021/12/20 06:49:28;;;;;;;19.38;3.83;;;;;;;5.48;86.23;102716.31;6217328;23;20009;-59
2021/12/20 06:51:55;;;;;;;18.35;3.45;;;;;;;5.47;85.57;102710.25;6217673;23;20012;-66
2021/12/20 06:54:21;;;;;;;19.08;3.35;;;;;;;5.47;85.31;102714.53;6217826;23;20004;-65
2021/12/20 06:56:46;;;;;;;21.33;3.05;;;;;;;5.48;83.99;102725.00;6217915;23;20184;-65
2021/12/20 06:59:12;;;;;;;18.38;2.95;;;;;;;5.46;84.79;102716.25;6217820;23;20000;-66
2021/12/20 07:01:38;;;;;;;20.50;3.50;;;;;;;5.43;86.99;102708.34;6217378;23;20019;-66
2021/12/20 07:04:04;;;;;;;15.82;3.25;;;;;;;5.41;88.27;102715.19;6217403;23;20012;-65
2021/12/20 07:06:30;;;;;;;18.02;3.30;;;;;;;5.45;88.53;102727.47;6217256;23;19997;-66
2021/12/20 07:08:56;;;;;;;16.67;3.40;;;;;;;5.43;85.68;102728.22;6217697;23;20008;-66
2021/12/20 07:11:22;;;;;;;16.35;3.10;;;;;;;5.42;89.28;102722.16;6217378;23;20015;-68
2021/12/20 07:13:47;;;;;;;19.67;3.25;;;;;;;5.41;86.66;102730.75;6217749;23;20086;-65
2021/12/20 07:16:14;;;;;;;22.58;3.70;;;;;;;5.40;89.12;102734.19;6216729;23;20422;-65
2021/12/20 07:18:39;;;;;;;17.58;3.17;;;;;;;5.42;89.62;102722.16;6217490;23;20019;-65
2021/12/20 07:21:05;;;;;;;20.55;3.47;;;;;;;5.41;87.81;102732.47;6217428;23;20380;-65
2021/12/20 07:23:30;;;;;;;23.50;3.60;;;;;;;5.38;88.99;102716.78;6217382;23;20016;-64
2021/12/20 07:25:55;;;;;;;18.25;4.13;;;;;;;5.39;88.28;102723.75;6217270;23;20011;-66
2021/12/20 07:28:21;;;;;;;18.55;3.85;;;;;;;5.40;89.40;102731.59;6217277;23;20006;-65
2021/12/20 07:30:48;;;;;;;17.80;3.55;;;;;;;5.39;89.72;102724.63;6217286;23;20410;-65
2021/12/20 07:33:15;;;;;;;21.15;3.25;;;;;;;5.41;88.58;102729.88;6217120;23;20291;-65
2021/12/20 07:35:41;;;;;;;22.75;3.47;;;;;;;5.40;91.51;102717.72;6217621;23;20039;-67
2021/12/20 07:38:11;;;;;;;23.88;4.30;;;;;;;5.39;88.12;102729.81;6217767;23;20004;-64
2021/12/20 07:40:36;;;;;;;25.08;3.78;;;;;;;5.40;88.47;102730.72;6217093;23;20000;-65
2021/12/20 07:43:02;;;;;;;19.55;3.50;;;;;;;5.39;91.68;102726.34;6217379;23;20023;-65
2021/12/20 07:45:27;;;;;;;18.88;3.60;;;;;;;5.40;90.61;102733.31;6217972;23;20032;-63
2021/12/20 07:47:52;;;;;;;19.75;3.40;;;;;;;5.38;91.18;102724.56;6215420;23;20350;-65
2021/12/20 07:50:19;;;;;;;15.95;3.25;;;;;;;5.42;91.37;102734.25;6216793;23;20008;-59
2021/12/20 07:52:44;;;;;;;19.13;3.47;;;;;;;5.39;93.18;102726.34;6216729;23;20004;-63
2021/12/20 07:55:10;;;;;;;26.67;4.18;;;;;;;5.44;91.91;102735.19;6217127;23;20013;-63
2021/12/20 07:57:37;;;;;;;13.48;3.10;;;;;;;5.42;91.82;102737.72;6216648;23;20069;-62
2021/12/20 08:00:08;;;;;;;20.02;3.47;;;;;;;5.41;93.24;102746.34;6216904;23;20217;-63
2021/12/20 08:02:33;;;;;;;25.75;3.78;;;;;;;5.43;93.12;102738.63;6216886;23;20397;-64
2021/12/20 08:04:58;;;;;;;18.75;3.05;;;;;;;5.43;94.05;102742.09;6217091;23;20004;-62
2021/12/20 08:07:24;;;;;;;24.83;3.63;;;;;;;5.46;93.70;102743.94;6216523;23;20005;-64
2021/12/20 08:09:50;;;;;;;19.42;3.50;;;;;;;5.45;93.64;102737.84;6216379;23;20068;-64
2021/12/20 08:12:16;;;;;;;18.50;3.60;;;;;;;5.47;93.36;102740.50;6216313;23;20032;-64
2021/12/20 08:14:41;;;;;;;21.90;3.53;;;;;;;5.45;92.52;102743.03;6216475;23;20015;-65
2021/12/20 08:17:07;;;;;;;24.73;4.13;;;;;;;5.44;91.30;102745.56;6216392;23;20040;-64
2021/12/20 08:19:32;;;;;;;19.58;4.07;;;;;;;5.45;91.57;102742.16;6214042;23;20008;-63
2021/12/20 08:21:57;;;;;;;18.05;4.10;;;;;;;5.45;92.89;102740.44;6215549;23;20004;-62
2021/12/20 08:24:23;;;;;;;24.13;3.63;;;;;;;5.48;90.23;102740.56;6215240;23;20083;-62
2021/12/20 08:26:48;;;;;;;17.80;3.60;;;;;;;5.48;89.60;102742.28;6215333;23;20011;-62
2021/12/20 08:29:14;;;;;;;21.63;3.97;;;;;;;5.47;88.90;102750.91;6218769;23;20079;-65
2021/12/20 08:31:39;;;;;;;18.08;4.03;;;;;;;5.45;90.41;102753.44;6216681;23;20009;-64
2021/12/20 08:34:05;;;;;;;21.88;3.88;;;;;;;5.47;90.81;102751.78;6218650;23;20060;-64
2021/12/20 08:36:31;;;;;;;21.15;4.13;;;;;;;5.45;89.66;102740.44;6218873;23;20005;-66
2021/12/20 08:38:56;;;;;;;19.48;3.70;;;;;;;5.51;91.88;102753.66;6218993;23;20019;-65
2021/12/20 08:41:21;;;;;;;18.98;3.70;;;;;;;5.51;89.05;102745.00;6218835;23;20127;-64
2021/12/20 08:43:47;;;;;;;21.58;3.75;;;;;;;5.54;89.99;102742.53;6218500;23;20287;-64
2021/12/20 08:46:14;;;;;;;21.92;3.63;;;;;;;5.57;88.36;102759.06;6218793;23;20004;-66
2021/12/20 08:48:40;;;;;;;17.38;3.67;;;;;;;5.54;88.45;102753.75;6218771;23;20008;-66
2021/12/20 08:51:06;;;;;;;21.23;4.18;;;;;;;5.57;87.75;102761.66;6218909;23;20066;-65
2021/12/20 08:53:33;;;;;;;16.17;3.30;;;;;;;5.57;89.02;102756.47;6218699;23;20035;-64
2021/12/20 08:55:59;;;;;;;21.95;3.85;;;;;;;5.65;89.02;102756.78;6218794;23;20020;-65
2021/12/20 08:58:25;;;;;;;21.80;4.10;;;;;;;5.71;89.64;102761.31;6218747;23;20383;-65
2021/12/20 09:00:51;;;;;;;20.58;3.42;;;;;;;5.64;88.04;102738.53;6218506;23;20362;-64
2021/12/20 09:03:16;;;;;;;18.77;3.03;;;;;;;5.67;84.15;102743.84;6218298;23;20015;-65
2021/12/20 09:05:41;;;;;;;16.58;3.67;;;;;;;5.69;83.63;102752.59;6218362;23;20001;-67
2021/12/20 09:08:10;;;;;;;24.17;3.70;;;;;;;5.76;85.04;102758.06;6218503;23;20103;-65
2021/12/20 09:10:36;;;;;;;14.02;2.65;;;;;;;5.81;84.57;102753.91;6218072;23;20051;-64
2021/12/20 09:13:03;;;;;;;18.65;3.67;;;;;;;5.80;82.47;102754.75;6217935;23;20418;-65
2021/12/20 09:15:30;;;;;;;21.77;3.13;;;;;;;5.84;82.66;102766.16;6218791;23;20019;-64
2021/12/20 09:17:55;;;;;;;13.15;3.15;;;;;;;5.85;83.39;102755.81;6218302;23;20433;-65
2021/12/20 09:20:23;;;;;;;15.63;3.40;;;;;;;5.92;84.14;102765.59;6218622;23;20001;-66
2021/12/20 09:22:51;;;;;;;14.45;3.15;;;;;;;5.99;86.05;102771.94;6218583;23;20050;-64
2021/12/20 09:25:20;;;;;;;16.25;3.83;;;;;;;6.08;87.54;102768.75;6218231;23;20087;-64
2021/12/20 09:27:45;;;;;;;23.38;3.55;;;;;;;6.10;86.55;102773.19;6218021;23;20333;-65
2021/12/20 09:30:12;;;;;;;18.90;3.30;;;;;;;6.14;85.70;102763.78;6218069;23;20005;-63
2021/12/20 09:32:37;;;;;;;16.30;3.13;;;;;;;6.08;83.61;102763.56;6217283;23;20071;-65
2021/12/20 09:35:03;;;;;;;15.52;2.95;;;;;;;6.14;84.30;102775.06;6218065;23;20013;-63
2021/12/20 09:37:29;;;;;;;16.13;3.20;;;;;;;6.21;83.63;102781.38;6218433;23;20011;-65
2021/12/20 09:39:55;;;;;;;16.70;2.85;;;;;;;6.20;83.19;102779.63;6217875;23;20001;-63
2021/12/20 09:42:22;;;;;;;13.48;2.58;;;;;;;6.18;82.46;102769.16;6218267;23;20024;-65
2021/12/20 09:44:48;;;;;;;17.75;3.22;;;;;;;6.22;83.02;102788.34;6217779;23;20020;-64
2021/12/20 09:47:14;;;;;;;19.50;3.08;;;;;;;6.16;82.22;102788.13;6218767;23;20009;-63
2021/12/20 09:49:40;;;;;;;20.30;3.42;;;;;;;6.10;81.04;102788.78;6218185;23;20078;-63
2021/12/20 09:52:06;;;;;;;14.02;3.15;;;;;;;6.10;82.50;102787.88;6218134;23;20005;-66
2021/12/20 09:54:31;;;;;;;19.10;3.17;;;;;;;6.12;83.88;102787.13;6217975;23;20009;-65
2021/12/20 09:56:58;;;;;;;16.90;3.30;;;;;;;6.17;83.28;102787.28;6217931;23;20101;-64
2021/12/20 09:59:27;;;;;;;15.50;3.45;;;;;;;6.18;82.37;102789.94;6217914;23;20526;-65
2021/12/20 10:01:53;;;;;;;14.55;3.50;;;;;;;6.14;83.14;102777.66;6217947;23;20004;-67
2021/12/20 10:04:20;;;;;;;26.65;4.18;;;;;;;6.16;82.80;102783.81;6218177;23;20011;-63
2021/12/20 10:06:50;;;;;;;17.17;3.50;;;;;;;6.19;83.28;102783.03;6218011;23;20004;-64
2021/12/20 10:09:16;;;;;;;17.02;3.17;;;;;;;6.19;83.20;102770.94;6217611;23;20036;-66
2021/12/20 10:11:43;;;;;;;17.13;3.05;;;;;;;6.24;83.00;102777.16;6217865;23;20333;-64
2021/12/20 10:14:14;;;;;;;17.25;3.53;;;;;;;6.27;82.13;102789.38;6217582;23;20425;-66
2021/12/20 10:16:41;;;;;;;18.63;3.72;;;;;;;6.21;83.39;102771.00;6218165;23;20076;-66
2021/12/20 10:19:30;;;;;;;12.60;3.22;;;;;;;6.35;83.37;102789.66;6217907;23;20251;-66
2021/12/20 10:21:58;;;;;;;17.02;3.55;;;;;;;6.21;82.57;102790.06;6217725;23;20382;-65
2021/12/20 10:24:35;;;;;;;17.75;3.13;;;;;;;6.33;84.34;102791.31;6217648;23;20402;-64
2021/12/20 10:27:01;;;;;;;17.77;3.20;;;;;;;6.36;82.85;102792.31;6217600;23;20092;-64
2021/12/20 10:29:26;;;;;;;15.75;3.13;;;;;;;6.37;82.49;102788.00;6218074;23;20004;-65
2021/12/20 10:31:53;;;;;;;20.20;3.50;;;;;;;6.42;82.09;102789.91;6218063;23;20011;-66
2021/12/20 10:34:33;;;;;;;19.70;3.50;;;;;;;6.38;83.12;102769.84;6217639;23;20040;-66
2021/12/20 10:37:00;;;;;;;18.38;3.42;;;;;;;6.40;82.58;102781.19;6217771;23;20283;-65
2021/12/20 10:39:41;;;;;;;15.73;3.35;;;;;;;6.41;83.18;102780.34;6217768;23;20107;-65
2021/12/20 10:42:27;;;;;;;17.77;3.22;;;;;;;6.49;83.42;102791.03;6217637;23;20000;-66
2021/12/20 10:45:08;;;;;;;17.30;3.35;;;;;;;6.45;83.18;102790.03;6217052;23;20008;-67
2021/12/20 10:47:33;;;;;;;16.70;3.50;;;;;;;6.39;81.49;102789.84;6217834;23;20008;-65
2021/12/20 10:50:18;;;;;;;18.92;3.58;;;;;;;6.39;82.85;102791.53;6216900;23;20412;-67
2021/12/20 10:52:45;;;;;;;18.75;3.30;;;;;;;6.43;81.33;102785.59;6218903;23;20079;-66
2021/12/20 10:55:11;;;;;;;21.40;3.80;;;;;;;6.36;82.05;102781.03;6216776;23;20005;-65
2021/12/20 10:57:37;;;;;;;15.38;3.50;;;;;;;6.38;82.88;102782.84;6217637;23;20089;-66
2021/12/20 11:00:21;;;;;;;18.17;3.58;;;;;;;6.31;83.70;102752.25;6217770;23;20004;-65
2021/12/20 11:03:26;;;;;;;19.70;3.70;;;;;;;6.42;84.61;102776.91;6217788;23;20398;-67
2021/12/20 11:06:11;;;;;;;17.85;3.78;;;;;;;6.46;83.67;102773.59;6216881;23;20008;-66
2021/12/20 11:11:18;;;;;;;16.38;4.20;;;;;;;6.61;82.39;102768.91;6217630;23;20019;-67
2021/12/20 11:13:43;;;;;;;16.25;3.53;;;;;;;6.50;83.20;102769.38;6217303;23;20076;-67
2021/12/20 11:16:31;;;;;;;21.50;3.55;;;;;;;6.61;84.15;102783.63;6217471;23;20012;-67
2021/12/20 11:19:10;;;;;;;15.93;3.70;;;;;;;6.56;82.96;102787.81;6215941;23;20294;-66
2021/12/20 11:21:44;;;;;;;21.67;3.97;;;;;;;6.54;82.14;102777.34;6217096;23;20470;-66
2021/12/20 11:24:15;;;;;;;17.10;3.60;;;;;;;6.53;83.40;102772.97;6217245;23;20096;-65
2021/12/20 11:26:41;;;;;;;18.58;4.25;;;;;;;6.59;83.78;102767.06;6217072;23;20395;-67
2021/12/20 11:29:06;;;;;;;17.42;4.50;;;;;;;6.66;84.06;102761.25;6216888;23;20031;-69
2021/12/20 11:31:34;;;;;;;21.00;4.10;;;;;;;6.75;83.24;102769.38;6217416;23;20051;-65
2021/12/20 11:34:01;;;;;;;23.33;3.88;;;;;;;6.78;82.39;102771.19;6217014;23;20476;-66
2021/12/20 11:36:27;;;;;;;21.50;3.90;;;;;;;6.79;82.97;102775.56;6216824;23;20424;-68
2021/12/20 11:38:53;;;;;;;17.08;3.50;;;;;;;6.75;83.03;102760.69;6217110;23;20071;-67